sensor_id;sensor_type;location;lat;lon;timestamp;P1;durP1;ratioP1;P2;durP2;ratioP2
18102;SDS011;9178;51.120;6.192;2023-07-22T00:01:39;8.57;;;6.87;;
18102;SDS011;9178;51.120;6.192;2023-07-22T00:04:06;9.97;;;7.37;;
18102;SDS011;9178;51.120;6.192;2023-07-22T00:06:33;8.10;;;7.10;;
18102;SDS011;9178;51.120;6.192;2023-07-22T00:09:00;9.87;;;7.50;;
18102;SDS011;9178;51.120;6.192;2023-07-22T00:11:29;8.97;;;7.27;;
18102;SDS011;9178;51.120;6.192;2023-07-22T00:13:56;9.47;;;6.93;;
18102;SDS011;9178;51.120;6.192;2023-07-22T00:16:24;8.77;;;6.80;;
18102;SDS011;9178;51.120;6.192;2023-07-22T00:18:50;12.70;;;7.37;;
18102;SDS011;9178;51.120;6.192;2023-07-22T00:21:18;13.00;;;7.17;;
18102;SDS011;9178;51.120;6.192;2023-07-22T00:23:45;11.00;;;6.60;;
18102;SDS011;9178;51.120;6.192;2023-07-22T00:26:12;9.30;;;7.40;;
18102;SDS011;9178;51.120;6.192;2023-07-22T00:28:41;9.47;;;6.97;;
18102;SDS011;9178;51.120;6.192;2023-07-22T00:31:08;11.23;;;7.27;;
18102;SDS011;9178;51.120;6.192;2023-07-22T00:33:38;10.33;;;6.90;;
18102;SDS011;9178;51.120;6.192;2023-07-22T00:36:05;9.57;;;6.70;;
18102;SDS011;9178;51.120;6.192;2023-07-22T00:38:32;8.23;;;6.70;;
18102;SDS011;9178;51.120;6.192;2023-07-22T00:40:59;8.97;;;7.10;;
18102;SDS011;9178;51.120;6.192;2023-07-22T00:43:29;10.07;;;7.20;;
18102;SDS011;9178;51.120;6.192;2023-07-22T00:45:58;7.90;;;6.70;;
18102;SDS011;9178;51.120;6.192;2023-07-22T00:48:25;7.33;;;6.00;;
18102;SDS011;9178;51.120;6.192;2023-07-22T00:50:54;9.87;;;7.30;;
18102;SDS011;9178;51.120;6.192;2023-07-22T00:53:21;10.17;;;7.17;;
18102;SDS011;9178;51.120;6.192;2023-07-22T00:55:48;8.17;;;6.23;;
18102;SDS011;9178;51.120;6.192;2023-07-22T00:58:15;7.87;;;6.67;;
18102;SDS011;9178;51.120;6.192;2023-07-22T01:00:42;7.80;;;6.67;;
18102;SDS011;9178;51.120;6.192;2023-07-22T01:03:11;8.87;;;6.40;;
18102;SDS011;9178;51.120;6.192;2023-07-22T01:05:38;10.50;;;7.13;;
18102;SDS011;9178;51.120;6.192;2023-07-22T01:08:06;6.97;;;5.93;;
18102;SDS011;9178;51.120;6.192;2023-07-22T01:10:36;7.30;;;6.03;;
18102;SDS011;9178;51.120;6.192;2023-07-22T01:13:03;7.37;;;6.63;;
18102;SDS011;9178;51.120;6.192;2023-07-22T01:15:33;7.40;;;6.03;;
18102;SDS011;9178;51.120;6.192;2023-07-22T01:18:00;8.53;;;5.97;;
18102;SDS011;9178;51.120;6.192;2023-07-22T01:20:30;8.37;;;5.90;;
18102;SDS011;9178;51.120;6.192;2023-07-22T01:22:58;8.47;;;6.23;;
18102;SDS011;9178;51.120;6.192;2023-07-22T01:25:34;8.33;;;6.00;;
18102;SDS011;9178;51.120;6.192;2023-07-22T01:28:01;8.27;;;6.07;;
18102;SDS011;9178;51.120;6.192;2023-07-22T01:30:28;8.87;;;5.70;;
18102;SDS011;9178;51.120;6.192;2023-07-22T01:32:55;7.90;;;5.80;;
18102;SDS011;9178;51.120;6.192;2023-07-22T01:35:22;9.50;;;5.60;;
18102;SDS011;9178;51.120;6.192;2023-07-22T01:37:51;11.73;;;5.97;;
18102;SDS011;9178;51.120;6.192;2023-07-22T01:40:20;8.43;;;6.20;;
18102;SDS011;9178;51.120;6.192;2023-07-22T01:42:51;8.90;;;5.50;;
18102;SDS011;9178;51.120;6.192;2023-07-22T01:45:18;6.70;;;5.17;;
18102;SDS011;9178;51.120;6.192;2023-07-22T01:47:45;8.97;;;6.77;;
18102;SDS011;9178;51.120;6.192;2023-07-22T01:50:13;6.30;;;5.20;;
18102;SDS011;9178;51.120;6.192;2023-07-22T01:52:41;9.10;;;5.60;;
18102;SDS011;9178;51.120;6.192;2023-07-22T01:55:08;5.60;;;5.10;;
18102;SDS011;9178;51.120;6.192;2023-07-22T01:57:37;6.57;;;5.53;;
18102;SDS011;9178;51.120;6.192;2023-07-22T02:00:05;9.17;;;5.70;;
18102;SDS011;9178;51.120;6.192;2023-07-22T02:02:36;7.40;;;5.33;;
18102;SDS011;9178;51.120;6.192;2023-07-22T02:05:03;7.60;;;5.57;;
18102;SDS011;9178;51.120;6.192;2023-07-22T02:07:31;8.47;;;5.73;;
18102;SDS011;9178;51.120;6.192;2023-07-22T02:09:58;7.83;;;5.60;;
18102;SDS011;9178;51.120;6.192;2023-07-22T02:12:25;6.87;;;5.90;;
18102;SDS011;9178;51.120;6.192;2023-07-22T02:14:54;6.33;;;5.20;;
18102;SDS011;9178;51.120;6.192;2023-07-22T02:17:21;7.33;;;5.10;;
18102;SDS011;9178;51.120;6.192;2023-07-22T02:19:48;9.67;;;6.00;;
18102;SDS011;9178;51.120;6.192;2023-07-22T02:22:15;6.77;;;6.07;;
18102;SDS011;9178;51.120;6.192;2023-07-22T02:24:42;6.87;;;5.97;;
18102;SDS011;9178;51.120;6.192;2023-07-22T02:27:10;8.03;;;6.60;;
18102;SDS011;9178;51.120;6.192;2023-07-22T02:29:37;9.73;;;5.73;;
18102;SDS011;9178;51.120;6.192;2023-07-22T02:32:05;7.20;;;6.07;;
18102;SDS011;9178;51.120;6.192;2023-07-22T02:34:33;7.27;;;5.77;;
18102;SDS011;9178;51.120;6.192;2023-07-22T02:37:00;6.93;;;5.70;;
18102;SDS011;9178;51.120;6.192;2023-07-22T02:39:27;7.63;;;5.63;;
18102;SDS011;9178;51.120;6.192;2023-07-22T02:41:54;8.67;;;5.40;;
18102;SDS011;9178;51.120;6.192;2023-07-22T02:44:21;7.37;;;5.53;;
18102;SDS011;9178;51.120;6.192;2023-07-22T02:46:48;7.37;;;5.50;;
18102;SDS011;9178;51.120;6.192;2023-07-22T02:49:16;6.37;;;5.53;;
18102;SDS011;9178;51.120;6.192;2023-07-22T02:51:43;8.30;;;5.70;;
18102;SDS011;9178;51.120;6.192;2023-07-22T02:54:10;7.30;;;5.63;;
18102;SDS011;9178;51.120;6.192;2023-07-22T02:56:37;8.60;;;5.50;;
18102;SDS011;9178;51.120;6.192;2023-07-22T02:59:04;7.07;;;5.60;;
18102;SDS011;9178;51.120;6.192;2023-07-22T03:01:31;8.60;;;5.63;;
18102;SDS011;9178;51.120;6.192;2023-07-22T03:03:58;8.33;;;6.07;;
18102;SDS011;9178;51.120;6.192;2023-07-22T03:06:27;7.33;;;5.63;;
18102;SDS011;9178;51.120;6.192;2023-07-22T03:08:54;8.03;;;6.00;;
18102;SDS011;9178;51.120;6.192;2023-07-22T03:11:22;7.17;;;5.87;;
18102;SDS011;9178;51.120;6.192;2023-07-22T03:13:51;8.13;;;5.73;;
18102;SDS011;9178;51.120;6.192;2023-07-22T03:16:19;8.17;;;5.80;;
18102;SDS011;9178;51.120;6.192;2023-07-22T03:18:46;7.43;;;5.33;;
18102;SDS011;9178;51.120;6.192;2023-07-22T03:21:12;6.80;;;5.97;;
18102;SDS011;9178;51.120;6.192;2023-07-22T03:23:41;8.07;;;5.90;;
18102;SDS011;9178;51.120;6.192;2023-07-22T03:26:09;6.93;;;5.97;;
18102;SDS011;9178;51.120;6.192;2023-07-22T03:28:36;9.23;;;6.03;;
18102;SDS011;9178;51.120;6.192;2023-07-22T03:31:03;7.93;;;6.30;;
18102;SDS011;9178;51.120;6.192;2023-07-22T03:33:30;7.37;;;5.47;;
18102;SDS011;9178;51.120;6.192;2023-07-22T03:35:57;7.17;;;5.50;;
18102;SDS011;9178;51.120;6.192;2023-07-22T03:38:24;7.03;;;5.23;;
18102;SDS011;9178;51.120;6.192;2023-07-22T03:40:53;7.47;;;5.57;;
18102;SDS011;9178;51.120;6.192;2023-07-22T03:43:21;7.33;;;5.37;;
18102;SDS011;9178;51.120;6.192;2023-07-22T03:45:59;7.60;;;5.90;;
18102;SDS011;9178;51.120;6.192;2023-07-22T03:48:26;7.30;;;5.70;;
18102;SDS011;9178;51.120;6.192;2023-07-22T03:50:53;6.57;;;5.30;;
18102;SDS011;9178;51.120;6.192;2023-07-22T03:53:20;10.10;;;5.93;;
18102;SDS011;9178;51.120;6.192;2023-07-22T03:55:47;8.37;;;5.80;;
18102;SDS011;9178;51.120;6.192;2023-07-22T03:58:16;9.07;;;5.80;;
18102;SDS011;9178;51.120;6.192;2023-07-22T04:00:42;6.50;;;5.80;;
18102;SDS011;9178;51.120;6.192;2023-07-22T04:03:09;7.47;;;5.70;;
18102;SDS011;9178;51.120;6.192;2023-07-22T04:05:36;8.20;;;5.90;;
18102;SDS011;9178;51.120;6.192;2023-07-22T04:08:03;8.80;;;6.30;;
18102;SDS011;9178;51.120;6.192;2023-07-22T04:10:30;9.40;;;5.73;;
18102;SDS011;9178;51.120;6.192;2023-07-22T04:12:57;7.27;;;5.73;;
18102;SDS011;9178;51.120;6.192;2023-07-22T04:15:25;6.23;;;5.53;;
18102;SDS011;9178;51.120;6.192;2023-07-22T04:17:52;6.23;;;5.33;;
18102;SDS011;9178;51.120;6.192;2023-07-22T04:20:19;8.03;;;5.87;;
18102;SDS011;9178;51.120;6.192;2023-07-22T04:22:49;7.30;;;5.63;;
18102;SDS011;9178;51.120;6.192;2023-07-22T04:25:16;6.93;;;5.57;;
18102;SDS011;9178;51.120;6.192;2023-07-22T04:27:43;6.80;;;5.93;;
18102;SDS011;9178;51.120;6.192;2023-07-22T04:30:10;9.83;;;6.30;;
18102;SDS011;9178;51.120;6.192;2023-07-22T04:32:38;8.07;;;5.60;;
18102;SDS011;9178;51.120;6.192;2023-07-22T04:35:06;7.63;;;5.67;;
18102;SDS011;9178;51.120;6.192;2023-07-22T04:37:33;8.23;;;5.83;;
18102;SDS011;9178;51.120;6.192;2023-07-22T04:40:00;8.23;;;5.90;;
18102;SDS011;9178;51.120;6.192;2023-07-22T04:42:31;7.90;;;6.63;;
18102;SDS011;9178;51.120;6.192;2023-07-22T04:44:58;9.17;;;5.73;;
18102;SDS011;9178;51.120;6.192;2023-07-22T04:47:25;6.77;;;5.83;;
18102;SDS011;9178;51.120;6.192;2023-07-22T04:49:56;7.27;;;5.93;;
18102;SDS011;9178;51.120;6.192;2023-07-22T04:52:23;7.03;;;5.60;;
18102;SDS011;9178;51.120;6.192;2023-07-22T04:54:50;8.27;;;6.00;;
18102;SDS011;9178;51.120;6.192;2023-07-22T04:57:18;6.93;;;5.93;;
18102;SDS011;9178;51.120;6.192;2023-07-22T04:59:46;8.37;;;6.27;;
18102;SDS011;9178;51.120;6.192;2023-07-22T05:02:13;10.90;;;6.43;;
18102;SDS011;9178;51.120;6.192;2023-07-22T05:04:45;8.97;;;6.20;;
18102;SDS011;9178;51.120;6.192;2023-07-22T05:07:13;8.83;;;6.00;;
18102;SDS011;9178;51.120;6.192;2023-07-22T05:09:41;7.97;;;6.03;;
18102;SDS011;9178;51.120;6.192;2023-07-22T05:12:08;6.53;;;5.80;;
18102;SDS011;9178;51.120;6.192;2023-07-22T05:14:35;7.70;;;6.10;;
18102;SDS011;9178;51.120;6.192;2023-07-22T05:17:02;7.60;;;6.30;;
18102;SDS011;9178;51.120;6.192;2023-07-22T05:19:30;6.80;;;6.10;;
18102;SDS011;9178;51.120;6.192;2023-07-22T05:21:57;8.83;;;6.40;;
18102;SDS011;9178;51.120;6.192;2023-07-22T05:24:25;6.47;;;5.83;;
18102;SDS011;9178;51.120;6.192;2023-07-22T05:26:52;8.57;;;5.83;;
18102;SDS011;9178;51.120;6.192;2023-07-22T05:29:20;9.73;;;6.53;;
18102;SDS011;9178;51.120;6.192;2023-07-22T05:31:47;8.33;;;6.50;;
18102;SDS011;9178;51.120;6.192;2023-07-22T05:34:14;8.03;;;6.03;;
18102;SDS011;9178;51.120;6.192;2023-07-22T05:36:41;7.03;;;6.37;;
18102;SDS011;9178;51.120;6.192;2023-07-22T05:39:08;8.00;;;6.00;;
18102;SDS011;9178;51.120;6.192;2023-07-22T05:41:36;9.13;;;6.33;;
18102;SDS011;9178;51.120;6.192;2023-07-22T05:44:03;11.33;;;6.43;;
18102;SDS011;9178;51.120;6.192;2023-07-22T05:46:30;9.03;;;6.20;;
18102;SDS011;9178;51.120;6.192;2023-07-22T05:48:57;6.80;;;6.07;;
18102;SDS011;9178;51.120;6.192;2023-07-22T05:51:27;7.67;;;6.30;;
18102;SDS011;9178;51.120;6.192;2023-07-22T05:53:53;8.20;;;6.63;;
18102;SDS011;9178;51.120;6.192;2023-07-22T05:56:21;8.73;;;6.40;;
18102;SDS011;9178;51.120;6.192;2023-07-22T05:58:49;9.37;;;6.37;;
18102;SDS011;9178;51.120;6.192;2023-07-22T06:01:16;8.40;;;6.63;;
18102;SDS011;9178;51.120;6.192;2023-07-22T06:03:43;8.47;;;6.70;;
18102;SDS011;9178;51.120;6.192;2023-07-22T06:06:10;7.53;;;6.37;;
18102;SDS011;9178;51.120;6.192;2023-07-22T06:08:37;8.77;;;6.60;;
18102;SDS011;9178;51.120;6.192;2023-07-22T06:11:04;7.20;;;5.70;;
18102;SDS011;9178;51.120;6.192;2023-07-22T06:13:31;6.70;;;5.83;;
18102;SDS011;9178;51.120;6.192;2023-07-22T06:15:59;10.17;;;7.03;;
18102;SDS011;9178;51.120;6.192;2023-07-22T06:18:26;11.23;;;6.80;;
18102;SDS011;9178;51.120;6.192;2023-07-22T06:20:53;8.60;;;6.17;;
18102;SDS011;9178;51.120;6.192;2023-07-22T06:23:26;8.93;;;7.17;;
18102;SDS011;9178;51.120;6.192;2023-07-22T06:25:53;11.13;;;6.73;;
18102;SDS011;9178;51.120;6.192;2023-07-22T06:28:20;9.80;;;6.77;;
18102;SDS011;9178;51.120;6.192;2023-07-22T06:30:47;10.43;;;7.27;;
18102;SDS011;9178;51.120;6.192;2023-07-22T06:33:17;12.37;;;7.37;;
18102;SDS011;9178;51.120;6.192;2023-07-22T06:35:44;10.73;;;7.47;;
18102;SDS011;9178;51.120;6.192;2023-07-22T06:38:11;9.63;;;7.13;;
18102;SDS011;9178;51.120;6.192;2023-07-22T06:40:38;11.07;;;7.60;;
18102;SDS011;9178;51.120;6.192;2023-07-22T06:43:05;9.30;;;7.43;;
18102;SDS011;9178;51.120;6.192;2023-07-22T06:45:32;8.60;;;7.33;;
18102;SDS011;9178;51.120;6.192;2023-07-22T06:47:59;11.33;;;6.30;;
18102;SDS011;9178;51.120;6.192;2023-07-22T06:50:28;8.50;;;7.10;;
18102;SDS011;9178;51.120;6.192;2023-07-22T06:52:55;11.33;;;7.40;;
18102;SDS011;9178;51.120;6.192;2023-07-22T06:55:22;7.90;;;6.57;;
18102;SDS011;9178;51.120;6.192;2023-07-22T06:57:49;10.23;;;7.17;;
18102;SDS011;9178;51.120;6.192;2023-07-22T07:00:16;9.80;;;7.63;;
18102;SDS011;9178;51.120;6.192;2023-07-22T07:02:44;10.10;;;7.30;;
18102;SDS011;9178;51.120;6.192;2023-07-22T07:05:11;10.70;;;7.77;;
18102;SDS011;9178;51.120;6.192;2023-07-22T07:07:39;8.23;;;7.00;;
18102;SDS011;9178;51.120;6.192;2023-07-22T07:10:06;11.50;;;7.57;;
18102;SDS011;9178;51.120;6.192;2023-07-22T07:12:34;13.05;;;7.45;;
18102;SDS011;9178;51.120;6.192;2023-07-22T07:15:01;13.97;;;7.93;;
18102;SDS011;9178;51.120;6.192;2023-07-22T07:17:28;8.50;;;7.03;;
18102;SDS011;9178;51.120;6.192;2023-07-22T07:19:55;11.10;;;6.90;;
18102;SDS011;9178;51.120;6.192;2023-07-22T07:22:22;9.20;;;7.00;;
18102;SDS011;9178;51.120;6.192;2023-07-22T07:24:50;10.25;;;7.22;;
18102;SDS011;9178;51.120;6.192;2023-07-22T07:27:17;9.93;;;7.38;;
18102;SDS011;9178;51.120;6.192;2023-07-22T07:29:44;8.15;;;6.57;;
18102;SDS011;9178;51.120;6.192;2023-07-22T07:32:11;9.02;;;5.97;;
18102;SDS011;9178;51.120;6.192;2023-07-22T07:34:38;8.30;;;6.18;;
18102;SDS011;9178;51.120;6.192;2023-07-22T07:37:05;11.05;;;7.18;;
18102;SDS011;9178;51.120;6.192;2023-07-22T07:39:32;8.43;;;6.38;;
18102;SDS011;9178;51.120;6.192;2023-07-22T07:42:01;9.10;;;6.88;;
18102;SDS011;9178;51.120;6.192;2023-07-22T07:44:27;8.40;;;6.15;;
18102;SDS011;9178;51.120;6.192;2023-07-22T07:46:54;7.32;;;6.18;;
18102;SDS011;9178;51.120;6.192;2023-07-22T07:49:21;8.25;;;6.25;;
18102;SDS011;9178;51.120;6.192;2023-07-22T07:51:48;9.63;;;6.05;;
18102;SDS011;9178;51.120;6.192;2023-07-22T07:54:15;6.05;;;5.40;;
18102;SDS011;9178;51.120;6.192;2023-07-22T07:56:42;12.50;;;5.60;;
18102;SDS011;9178;51.120;6.192;2023-07-22T07:59:11;10.98;;;6.00;;
18102;SDS011;9178;51.120;6.192;2023-07-22T08:01:38;8.75;;;5.60;;
18102;SDS011;9178;51.120;6.192;2023-07-22T08:04:06;6.50;;;5.25;;
18102;SDS011;9178;51.120;6.192;2023-07-22T08:06:34;9.38;;;5.60;;
18102;SDS011;9178;51.120;6.192;2023-07-22T08:09:02;7.57;;;5.10;;
18102;SDS011;9178;51.120;6.192;2023-07-22T08:11:30;6.50;;;4.80;;
18102;SDS011;9178;51.120;6.192;2023-07-22T08:14:00;6.63;;;4.35;;
18102;SDS011;9178;51.120;6.192;2023-07-22T08:16:29;6.90;;;4.95;;
18102;SDS011;9178;51.120;6.192;2023-07-22T08:18:56;9.10;;;4.30;;
18102;SDS011;9178;51.120;6.192;2023-07-22T08:21:23;5.03;;;3.78;;
18102;SDS011;9178;51.120;6.192;2023-07-22T08:23:50;7.00;;;4.15;;
18102;SDS011;9178;51.120;6.192;2023-07-22T08:26:17;5.00;;;3.72;;
18102;SDS011;9178;51.120;6.192;2023-07-22T08:28:46;4.05;;;3.60;;
18102;SDS011;9178;51.120;6.192;2023-07-22T08:31:13;4.13;;;3.42;;
18102;SDS011;9178;51.120;6.192;2023-07-22T08:33:41;4.45;;;3.20;;
18102;SDS011;9178;51.120;6.192;2023-07-22T08:36:08;4.28;;;3.35;;
18102;SDS011;9178;51.120;6.192;2023-07-22T08:38:38;5.25;;;3.20;;
18102;SDS011;9178;51.120;6.192;2023-07-22T08:41:05;3.45;;;3.15;;
18102;SDS011;9178;51.120;6.192;2023-07-22T08:43:33;4.25;;;3.03;;
18102;SDS011;9178;51.120;6.192;2023-07-22T08:46:04;4.25;;;2.95;;
18102;SDS011;9178;51.120;6.192;2023-07-22T08:48:34;5.75;;;3.20;;
18102;SDS011;9178;51.120;6.192;2023-07-22T08:51:09;3.17;;;2.83;;
18102;SDS011;9178;51.120;6.192;2023-07-22T08:53:39;3.00;;;2.65;;
18102;SDS011;9178;51.120;6.192;2023-07-22T08:56:06;3.17;;;2.90;;
18102;SDS011;9178;51.120;6.192;2023-07-22T08:58:34;4.25;;;2.83;;
18102;SDS011;9178;51.120;6.192;2023-07-22T09:01:02;3.47;;;2.90;;
18102;SDS011;9178;51.120;6.192;2023-07-22T09:03:30;3.90;;;2.95;;
18102;SDS011;9178;51.120;6.192;2023-07-22T09:05:58;4.05;;;3.30;;
18102;SDS011;9178;51.120;6.192;2023-07-22T09:08:26;3.78;;;2.45;;
18102;SDS011;9178;51.120;6.192;2023-07-22T09:10:53;3.63;;;2.70;;
18102;SDS011;9178;51.120;6.192;2023-07-22T09:13:21;3.50;;;2.60;;
18102;SDS011;9178;51.120;6.192;2023-07-22T09:15:51;5.90;;;2.22;;
18102;SDS011;9178;51.120;6.192;2023-07-22T09:18:19;5.70;;;2.80;;
18102;SDS011;9178;51.120;6.192;2023-07-22T09:20:46;5.15;;;2.50;;
18102;SDS011;9178;51.120;6.192;2023-07-22T09:23:13;3.15;;;2.38;;
18102;SDS011;9178;51.120;6.192;2023-07-22T09:25:47;5.00;;;2.47;;
18102;SDS011;9178;51.120;6.192;2023-07-22T09:28:14;3.67;;;2.55;;
18102;SDS011;9178;51.120;6.192;2023-07-22T09:30:41;3.55;;;2.20;;
18102;SDS011;9178;51.120;6.192;2023-07-22T09:33:19;3.92;;;2.78;;
18102;SDS011;9178;51.120;6.192;2023-07-22T09:35:48;5.28;;;2.45;;
18102;SDS011;9178;51.120;6.192;2023-07-22T09:38:15;3.22;;;2.55;;
18102;SDS011;9178;51.120;6.192;2023-07-22T09:40:51;2.85;;;2.30;;
18102;SDS011;9178;51.120;6.192;2023-07-22T09:43:18;3.20;;;2.70;;
18102;SDS011;9178;51.120;6.192;2023-07-22T09:45:48;2.25;;;2.05;;
18102;SDS011;9178;51.120;6.192;2023-07-22T09:48:15;2.30;;;2.10;;
18102;SDS011;9178;51.120;6.192;2023-07-22T09:50:42;3.03;;;2.72;;
18102;SDS011;9178;51.120;6.192;2023-07-22T09:53:10;2.42;;;2.22;;
18102;SDS011;9178;51.120;6.192;2023-07-22T09:55:41;4.20;;;2.40;;
18102;SDS011;9178;51.120;6.192;2023-07-22T09:58:10;3.78;;;2.00;;
18102;SDS011;9178;51.120;6.192;2023-07-22T10:00:39;6.57;;;2.40;;
18102;SDS011;9178;51.120;6.192;2023-07-22T10:03:13;3.25;;;2.30;;
18102;SDS011;9178;51.120;6.192;2023-07-22T10:05:42;4.03;;;2.00;;
18102;SDS011;9178;51.120;6.192;2023-07-22T10:08:14;4.88;;;1.60;;
18102;SDS011;9178;51.120;6.192;2023-07-22T10:10:49;3.08;;;1.60;;
18102;SDS011;9178;51.120;6.192;2023-07-22T10:13:22;3.50;;;1.77;;
18102;SDS011;9178;51.120;6.192;2023-07-22T10:15:52;2.63;;;1.70;;
18102;SDS011;9178;51.120;6.192;2023-07-22T10:18:20;2.50;;;1.63;;
18102;SDS011;9178;51.120;6.192;2023-07-22T10:20:49;2.72;;;2.03;;
18102;SDS011;9178;51.120;6.192;2023-07-22T10:23:17;2.63;;;1.70;;
18102;SDS011;9178;51.120;6.192;2023-07-22T10:25:44;2.35;;;1.60;;
18102;SDS011;9178;51.120;6.192;2023-07-22T10:28:14;2.03;;;1.75;;
18102;SDS011;9178;51.120;6.192;2023-07-22T10:30:43;4.10;;;1.90;;
18102;SDS011;9178;51.120;6.192;2023-07-22T10:33:10;5.35;;;1.90;;
18102;SDS011;9178;51.120;6.192;2023-07-22T10:35:40;2.90;;;1.88;;
18102;SDS011;9178;51.120;6.192;2023-07-22T10:38:10;6.20;;;1.85;;
18102;SDS011;9178;51.120;6.192;2023-07-22T10:40:44;2.67;;;1.55;;
18102;SDS011;9178;51.120;6.192;2023-07-22T10:43:14;3.17;;;1.73;;
18102;SDS011;9178;51.120;6.192;2023-07-22T10:45:50;4.40;;;2.00;;
18102;SDS011;9178;51.120;6.192;2023-07-22T10:48:18;2.90;;;1.83;;
18102;SDS011;9178;51.120;6.192;2023-07-22T10:50:47;9.52;;;2.58;;
18102;SDS011;9178;51.120;6.192;2023-07-22T10:53:20;2.65;;;1.75;;
18102;SDS011;9178;51.120;6.192;2023-07-22T10:56:04;2.20;;;2.00;;
18102;SDS011;9178;51.120;6.192;2023-07-22T11:01:30;2.22;;;1.90;;
18102;SDS011;9178;51.120;6.192;2023-07-22T11:04:14;4.40;;;1.75;;
18102;SDS011;9178;51.120;6.192;2023-07-22T11:06:56;2.33;;;2.20;;
18102;SDS011;9178;51.120;6.192;2023-07-22T11:09:38;3.30;;;1.58;;
18102;SDS011;9178;51.120;6.192;2023-07-22T11:12:07;3.05;;;1.95;;
18102;SDS011;9178;51.120;6.192;2023-07-22T11:14:47;2.10;;;1.90;;
18102;SDS011;9178;51.120;6.192;2023-07-22T11:17:17;2.20;;;1.55;;
18102;SDS011;9178;51.120;6.192;2023-07-22T11:19:45;1.98;;;1.75;;
18102;SDS011;9178;51.120;6.192;2023-07-22T11:22:14;2.85;;;1.60;;
18102;SDS011;9178;51.120;6.192;2023-07-22T11:24:42;1.95;;;1.50;;
18102;SDS011;9178;51.120;6.192;2023-07-22T11:27:09;2.55;;;1.77;;
18102;SDS011;9178;51.120;6.192;2023-07-22T11:29:36;2.05;;;1.38;;
18102;SDS011;9178;51.120;6.192;2023-07-22T11:32:06;3.15;;;1.55;;
18102;SDS011;9178;51.120;6.192;2023-07-22T11:34:42;4.53;;;1.60;;
18102;SDS011;9178;51.120;6.192;2023-07-22T11:37:10;2.25;;;1.55;;
18102;SDS011;9178;51.120;6.192;2023-07-22T11:39:38;1.88;;;1.77;;
18102;SDS011;9178;51.120;6.192;2023-07-22T11:42:12;2.45;;;1.67;;
18102;SDS011;9178;51.120;6.192;2023-07-22T11:44:48;3.15;;;1.70;;
18102;SDS011;9178;51.120;6.192;2023-07-22T11:47:15;3.85;;;1.65;;
18102;SDS011;9178;51.120;6.192;2023-07-22T11:49:46;1.92;;;1.73;;
18102;SDS011;9178;51.120;6.192;2023-07-22T11:52:19;2.40;;;1.77;;
18102;SDS011;9178;51.120;6.192;2023-07-22T11:54:51;4.13;;;1.63;;
18102;SDS011;9178;51.120;6.192;2023-07-22T11:57:25;3.47;;;1.90;;
18102;SDS011;9178;51.120;6.192;2023-07-22T12:02:47;1.95;;;1.73;;
18102;SDS011;9178;51.120;6.192;2023-07-22T12:05:25;3.92;;;1.63;;
18102;SDS011;9178;51.120;6.192;2023-07-22T12:07:59;2.50;;;1.52;;
18102;SDS011;9178;51.120;6.192;2023-07-22T12:10:32;1.80;;;1.70;;
18102;SDS011;9178;51.120;6.192;2023-07-22T12:13:09;2.13;;;1.60;;
18102;SDS011;9178;51.120;6.192;2023-07-22T12:15:38;2.03;;;1.65;;
18102;SDS011;9178;51.120;6.192;2023-07-22T12:18:16;2.35;;;1.50;;
18102;SDS011;9178;51.120;6.192;2023-07-22T12:20:54;2.72;;;1.48;;
18102;SDS011;9178;51.120;6.192;2023-07-22T12:23:29;2.22;;;1.50;;
18102;SDS011;9178;51.120;6.192;2023-07-22T12:25:56;1.58;;;1.42;;
18102;SDS011;9178;51.120;6.192;2023-07-22T12:28:28;1.75;;;1.63;;
18102;SDS011;9178;51.120;6.192;2023-07-22T12:30:56;3.22;;;1.60;;
18102;SDS011;9178;51.120;6.192;2023-07-22T12:33:23;1.50;;;1.40;;
18102;SDS011;9178;51.120;6.192;2023-07-22T12:35:57;3.35;;;1.70;;
18102;SDS011;9178;51.120;6.192;2023-07-22T12:38:24;3.10;;;1.60;;
18102;SDS011;9178;51.120;6.192;2023-07-22T12:40:51;3.50;;;1.52;;
18102;SDS011;9178;51.120;6.192;2023-07-22T12:43:19;2.70;;;1.55;;
18102;SDS011;9178;51.120;6.192;2023-07-22T12:45:49;6.32;;;1.92;;
18102;SDS011;9178;51.120;6.192;2023-07-22T12:48:16;2.58;;;1.80;;
18102;SDS011;9178;51.120;6.192;2023-07-22T12:50:43;4.88;;;2.00;;
18102;SDS011;9178;51.120;6.192;2023-07-22T12:53:15;1.60;;;1.50;;
18102;SDS011;9178;51.120;6.192;2023-07-22T12:55:43;4.95;;;1.70;;
18102;SDS011;9178;51.120;6.192;2023-07-22T12:58:10;2.10;;;1.60;;
18102;SDS011;9178;51.120;6.192;2023-07-22T13:00:40;2.03;;;1.90;;
18102;SDS011;9178;51.120;6.192;2023-07-22T13:03:08;4.25;;;2.08;;
18102;SDS011;9178;51.120;6.192;2023-07-22T13:05:35;3.00;;;1.73;;
18102;SDS011;9178;51.120;6.192;2023-07-22T13:08:03;2.33;;;1.63;;
18102;SDS011;9178;51.120;6.192;2023-07-22T13:10:34;2.88;;;1.80;;
18102;SDS011;9178;51.120;6.192;2023-07-22T13:13:07;2.53;;;1.92;;
18102;SDS011;9178;51.120;6.192;2023-07-22T13:15:34;2.80;;;1.85;;
18102;SDS011;9178;51.120;6.192;2023-07-22T13:18:01;9.77;;;2.15;;
18102;SDS011;9178;51.120;6.192;2023-07-22T13:20:31;4.20;;;2.03;;
18102;SDS011;9178;51.120;6.192;2023-07-22T13:22:58;3.28;;;1.70;;
18102;SDS011;9178;51.120;6.192;2023-07-22T13:25:25;3.83;;;1.60;;
18102;SDS011;9178;51.120;6.192;2023-07-22T13:27:53;7.05;;;1.88;;
18102;SDS011;9178;51.120;6.192;2023-07-22T13:30:20;3.40;;;1.73;;
18102;SDS011;9178;51.120;6.192;2023-07-22T13:32:47;2.72;;;1.88;;
18102;SDS011;9178;51.120;6.192;2023-07-22T13:35:15;3.60;;;1.80;;
18102;SDS011;9178;51.120;6.192;2023-07-22T13:37:41;1.90;;;1.67;;
18102;SDS011;9178;51.120;6.192;2023-07-22T13:40:09;2.65;;;1.58;;
18102;SDS011;9178;51.120;6.192;2023-07-22T13:42:37;2.70;;;1.85;;
18102;SDS011;9178;51.120;6.192;2023-07-22T13:45:06;4.32;;;1.90;;
18102;SDS011;9178;51.120;6.192;2023-07-22T13:47:34;1.83;;;1.73;;
18102;SDS011;9178;51.120;6.192;2023-07-22T13:50:01;1.80;;;1.70;;
18102;SDS011;9178;51.120;6.192;2023-07-22T13:52:28;2.13;;;1.80;;
18102;SDS011;9178;51.120;6.192;2023-07-22T13:54:55;3.70;;;1.80;;
18102;SDS011;9178;51.120;6.192;2023-07-22T13:57:22;3.05;;;1.63;;
18102;SDS011;9178;51.120;6.192;2023-07-22T13:59:49;1.60;;;1.50;;
18102;SDS011;9178;51.120;6.192;2023-07-22T14:02:17;1.65;;;1.40;;
18102;SDS011;9178;51.120;6.192;2023-07-22T14:04:45;2.72;;;1.63;;
18102;SDS011;9178;51.120;6.192;2023-07-22T14:07:12;1.70;;;1.60;;
18102;SDS011;9178;51.120;6.192;2023-07-22T14:09:40;3.22;;;1.30;;
18102;SDS011;9178;51.120;6.192;2023-07-22T14:12:07;1.20;;;1.20;;
18102;SDS011;9178;51.120;6.192;2023-07-22T14:14:35;1.40;;;1.30;;
18102;SDS011;9178;51.120;6.192;2023-07-22T14:17:03;3.38;;;1.20;;
18102;SDS011;9178;51.120;6.192;2023-07-22T14:19:32;1.20;;;1.10;;
18102;SDS011;9178;51.120;6.192;2023-07-22T14:21:59;1.60;;;1.40;;
18102;SDS011;9178;51.120;6.192;2023-07-22T14:24:27;2.35;;;1.30;;
18102;SDS011;9178;51.120;6.192;2023-07-22T14:26:54;4.30;;;1.05;;
18102;SDS011;9178;51.120;6.192;2023-07-22T14:29:21;4.60;;;1.30;;
18102;SDS011;9178;51.120;6.192;2023-07-22T14:31:50;6.38;;;1.33;;
18102;SDS011;9178;51.120;6.192;2023-07-22T14:34:18;1.65;;;0.90;;
18102;SDS011;9178;51.120;6.192;2023-07-22T14:36:46;1.00;;;1.00;;
18102;SDS011;9178;51.120;6.192;2023-07-22T14:39:13;1.70;;;1.00;;
18102;SDS011;9178;51.120;6.192;2023-07-22T14:41:40;1.92;;;1.30;;
18102;SDS011;9178;51.120;6.192;2023-07-22T14:44:09;2.15;;;1.20;;
18102;SDS011;9178;51.120;6.192;2023-07-22T14:46:36;2.63;;;1.10;;
18102;SDS011;9178;51.120;6.192;2023-07-22T14:49:03;1.48;;;1.30;;
18102;SDS011;9178;51.120;6.192;2023-07-22T14:51:34;1.52;;;1.20;;
18102;SDS011;9178;51.120;6.192;2023-07-22T14:54:03;4.05;;;1.20;;
18102;SDS011;9178;51.120;6.192;2023-07-22T14:56:30;1.88;;;1.20;;
18102;SDS011;9178;51.120;6.192;2023-07-22T14:58:58;1.80;;;1.27;;
18102;SDS011;9178;51.120;6.192;2023-07-22T15:01:25;2.10;;;1.60;;
18102;SDS011;9178;51.120;6.192;2023-07-22T15:03:52;2.65;;;1.17;;
18102;SDS011;9178;51.120;6.192;2023-07-22T15:06:20;1.73;;;1.40;;
18102;SDS011;9178;51.120;6.192;2023-07-22T15:08:48;4.35;;;1.85;;
18102;SDS011;9178;51.120;6.192;2023-07-22T15:11:16;1.50;;;1.40;;
18102;SDS011;9178;51.120;6.192;2023-07-22T15:13:44;2.90;;;1.48;;